Time;durP1;ratioP1;P1;durP2;ratioP2;P2;SDS_P1;SDS_P2;PMS_P1;PMS_P2;Temp;Humidity;BMP_temperature;BMP_pressure;BME280_temperature;BME280_humidity;BME280_pressure;Samples;Min_cycle;Max_cycle;Signal;HPM_P1;HPM_P2
2021/07/30 00:04:08;;;;;;;5.28;3.78;;;21.80;63.60;;;;;;10439171;28;20067;-49
2021/07/30 00:09:08;;;;;;;5.28;3.08;;;21.80;63.60;;;;;;10456352;28;20036;-52
2021/07/30 00:14:10;;;;;;;6.22;4.07;;;21.80;63.60;;;;;;10436999;28;20122;-49
2021/07/30 00:19:10;;;;;;;5.63;3.85;;;21.80;63.60;;;;;;10455784;28;20094;-48
2021/07/30 00:24:11;;;;;;;6.70;3.50;;;21.80;63.60;;;;;;10463035;28;20591;-48
2021/07/30 00:29:12;;;;;;;6.75;3.72;;;21.80;63.60;;;;;;10455623;28;20490;-47
2021/07/30 00:34:12;;;;;;;6.43;4.40;;;21.80;63.60;;;;;;10455410;28;20029;-48
2021/07/30 00:39:13;;;;;;;6.30;3.63;;;21.80;63.60;;;;;;10437249;28;20075;-47
2021/07/30 00:44:14;;;;;;;5.50;4.10;;;21.80;63.60;;;;;;10455252;28;20053;-47
2021/07/30 00:49:15;;;;;;;6.45;3.67;;;21.80;63.50;;;;;;10456163;28;20123;-47
2021/07/30 00:54:16;;;;;;;6.82;3.90;;;21.80;63.50;;;;;;10432575;28;20519;-48
2021/07/30 00:59:17;;;;;;;6.80;4.40;;;21.70;63.40;;;;;;10455184;28;20037;-49
2021/07/30 01:04:18;;;;;;;4.88;3.55;;;21.70;63.40;;;;;;10438020;28;20109;-51
2021/07/30 01:09:19;;;;;;;4.72;3.75;;;21.70;63.40;;;;;;10455296;28;20111;-47
2021/07/30 01:14:19;;;;;;;5.35;4.18;;;21.70;63.40;;;;;;10454960;28;20036;-48
2021/07/30 01:19:24;;;;;;;6.25;3.97;;;21.70;63.40;;;;;;10454998;28;20065;-49
2021/07/30 01:24:26;;;;;;;6.82;4.15;;;21.70;63.30;;;;;;10448786;28;20033;-47
2021/07/30 01:29:29;;;;;;;6.25;4.30;;;21.70;63.40;;;;;;10454634;28;20025;-49
2021/07/30 01:34:30;;;;;;;5.10;4.25;;;21.70;63.30;;;;;;10454246;28;20107;-48
2021/07/30 01:39:31;;;;;;;5.97;4.25;;;21.70;63.40;;;;;;10454358;28;20036;-49
2021/07/30 01:44:32;;;;;;;4.60;3.65;;;21.70;63.30;;;;;;10436416;28;20073;-47
2021/07/30 01:49:32;;;;;;;5.82;4.47;;;21.70;63.20;;;;;;10454368;28;20021;-47
2021/07/30 01:54:33;;;;;;;4.97;3.90;;;21.60;63.80;;;;;;10460303;28;20485;-47
2021/07/30 01:59:34;;;;;;;4.40;3.60;;;21.60;63.20;;;;;;10461317;28;20120;-47
2021/07/30 02:04:34;;;;;;;5.88;3.97;;;21.60;63.30;;;;;;10461496;28;20037;-47
2021/07/30 02:09:35;;;;;;;5.25;4.15;;;21.60;63.20;;;;;;10461727;28;20111;-47
2021/07/30 02:14:36;;;;;;;5.32;3.78;;;21.60;63.20;;;;;;10460911;28;20048;-50
2021/07/30 02:19:36;;;;;;;5.93;4.30;;;21.60;63.10;;;;;;10463460;28;20473;-48
2021/07/30 02:24:37;;;;;;;5.50;3.70;;;21.60;63.10;;;;;;10464587;28;20533;-47
2021/07/30 02:29:38;;;;;;;5.30;3.40;;;21.60;63.00;;;;;;10460603;28;20033;-49
2021/07/30 02:34:38;;;;;;;6.00;4.07;;;21.60;63.10;;;;;;10460006;28;20108;-48
2021/07/30 02:39:39;;;;;;;5.63;4.45;;;21.60;63.10;;;;;;10460430;28;20068;-48
2021/07/30 02:44:40;;;;;;;7.47;5.03;;;21.60;63.10;;;;;;10459895;28;20080;-48
2021/07/30 02:49:40;;;;;;;4.82;3.97;;;21.50;63.60;;;;;;10459946;28;20053;-47
2021/07/30 02:54:41;;;;;;;7.07;4.32;;;21.50;63.00;;;;;;10459163;28;20056;-48
2021/07/30 02:59:42;;;;;;;6.03;3.95;;;21.50;63.00;;;;;;10440902;28;20025;-47
2021/07/30 03:04:42;;;;;;;6.63;3.97;;;21.50;63.00;;;;;;10458676;28;20449;-48
2021/07/30 03:09:43;;;;;;;5.50;4.35;;;21.50;63.00;;;;;;10458647;28;20053;-47
2021/07/30 03:14:44;;;;;;;5.30;4.07;;;21.50;62.90;;;;;;10438844;28;20481;-48
2021/07/30 03:19:44;;;;;;;5.95;4.00;;;21.50;62.90;;;;;;10461939;28;20048;-49
2021/07/30 03:24:45;;;;;;;5.18;4.22;;;21.50;62.90;;;;;;10461579;28;20052;-47
2021/07/30 03:29:46;;;;;;;6.22;4.43;;;21.50;62.90;;;;;;10458601;28;20025;-48
2021/07/30 03:34:46;;;;;;;4.47;4.05;;;21.50;63.00;;;;;;10457677;28;20087;-49
2021/07/30 03:39:47;;;;;;;5.07;3.90;;;21.50;63.00;;;;;;10458013;28;20032;-48
2021/07/30 03:44:48;;;;;;;5.15;4.35;;;21.50;62.90;;;;;;10456315;28;20056;-47
2021/07/30 03:49:48;;;;;;;5.63;4.38;;;21.40;62.90;;;;;;10437920;28;20048;-46
2021/07/30 03:54:49;;;;;;;9.60;4.68;;;21.50;62.90;;;;;;10457160;28;20033;-46
2021/07/30 03:59:53;;;;;;;5.43;4.25;;;21.50;62.90;;;;;;10456244;28;20111;-46
2021/07/30 04:04:53;;;;;;;6.50;4.57;;;21.40;62.80;;;;;;10456872;28;20036;-47
2021/07/30 04:09:54;;;;;;;5.20;4.07;;;21.40;62.90;;;;;;10456796;28;20056;-48
2021/07/30 04:14:55;;;;;;;6.38;4.55;;;21.40;62.80;;;;;;10455090;28;20040;-47
2021/07/30 04:19:55;;;;;;;7.25;4.50;;;21.40;62.80;;;;;;10455695;28;20108;-46
2021/07/30 04:24:56;;;;;;;5.13;4.20;;;21.40;62.90;;;;;;10455206;28;20031;-47
2021/07/30 04:29:57;;;;;;;4.97;4.30;;;21.40;63.00;;;;;;10455215;28;20061;-47
2021/07/30 04:34:57;;;;;;;6.32;4.78;;;21.40;63.20;;;;;;10434560;28;20460;-48
2021/07/30 04:39:58;;;;;;;7.28;5.00;;;21.40;63.20;;;;;;10453153;28;20056;-47
2021/07/30 04:44:59;;;;;;;5.53;4.20;;;21.40;63.50;;;;;;10450831;28;20073;-52
2021/07/30 04:49:59;;;;;;;6.50;4.85;;;21.40;63.40;;;;;;10452319;28;20110;-47
2021/07/30 04:55:00;;;;;;;5.70;4.55;;;21.40;63.30;;;;;;10453806;28;20043;-48
2021/07/30 05:00:01;;;;;;;8.45;6.60;;;21.40;63.30;;;;;;10452971;28;20154;-47
2021/07/30 05:05:01;;;;;;;7.75;6.28;;;21.40;65.00;;;;;;10436600;28;20041;-48
2021/07/30 05:10:02;;;;;;;18.35;5.88;;;21.50;65.00;;;;;;10454601;28;20025;-47
2021/07/30 05:15:05;;;;;;;6.50;5.45;;;21.50;65.00;;;;;;10455070;28;20075;-46
2021/07/30 05:20:08;;;;;;;6.85;5.72;;;21.50;65.00;;;;;;10460588;28;20036;-47
2021/07/30 05:25:11;;;;;;;8.18;6.68;;;21.50;65.40;;;;;;10456596;28;20029;-46
2021/07/30 05:30:12;;;;;;;11.10;5.43;;;21.50;65.30;;;;;;10462867;28;20039;-47
2021/07/30 05:35:13;;;;;;;9.70;5.40;;;21.60;65.50;;;;;;10462975;28;20083;-48
2021/07/30 05:40:14;;;;;;;7.70;5.10;;;21.50;65.40;;;;;;10462537;28;20073;-50
2021/07/30 05:45:14;;;;;;;8.23;5.32;;;21.60;65.50;;;;;;10462401;28;20068;-49
2021/07/30 05:50:16;;;;;;;10.23;5.57;;;21.60;65.80;;;;;;10462109;28;20044;-49
2021/07/30 05:55:17;;;;;;;16.77;5.43;;;21.60;65.80;;;;;;10461716;28;20037;-52
2021/07/30 06:00:17;;;;;;;21.25;6.10;;;21.60;65.30;;;;;;10459404;28;20066;-47
2021/07/30 06:05:18;;;;;;;25.25;5.93;;;21.60;65.40;;;;;;10460901;28;20028;-52
2021/07/30 06:10:19;;;;;;;21.88;5.47;;;21.60;65.70;;;;;;10459976;28;20035;-51
2021/07/30 06:15:23;;;;;;;14.95;5.35;;;21.60;66.10;;;;;;10439927;28;20029;-53
2021/07/30 06:20:24;;;;;;;18.90;6.55;;;21.60;65.60;;;;;;10463914;28;20031;-49
2021/07/30 06:25:25;;;;;;;30.67;7.13;;;21.60;65.90;;;;;;10401680;28;20355;-51
2021/07/30 06:30:26;;;;;;;26.23;6.65;;;21.60;65.70;;;;;;10447216;28;20021;-54
2021/07/30 06:35:27;;;;;;;30.40;6.28;;;21.70;66.00;;;;;;10449410;28;20100;-51
2021/07/30 06:40:28;;;;;;;25.60;6.45;;;21.60;66.10;;;;;;10458125;28;20037;-53
2021/07/30 06:45:28;;;;;;;19.00;6.40;;;21.60;65.70;;;;;;10459560;28;20087;-54
2021/07/30 06:50:29;;;;;;;17.63;6.05;;;21.60;65.80;;;;;;10459248;28;20496;-53
2021/07/30 06:55:30;;;;;;;17.38;6.20;;;21.60;66.50;;;;;;10459524;28;20124;-50
2021/07/30 07:00:30;;;;;;;24.20;7.70;;;21.60;67.00;;;;;;10451957;28;20076;-54
2021/07/30 07:05:33;;;;;;;21.75;7.38;;;21.70;67.10;;;;;;10442642;28;20049;-55
2021/07/30 07:10:34;;;;;;;21.88;7.78;;;21.70;66.80;;;;;;10433990;28;20021;-55
2021/07/30 07:15:35;;;;;;;15.82;6.18;;;21.70;66.40;;;;;;10433911;28;20033;-55
2021/07/30 07:20:36;;;;;;;23.58;7.50;;;21.70;66.50;;;;;;10456986;28;20068;-54
2021/07/30 07:25:37;;;;;;;18.83;5.97;;;21.70;66.80;;;;;;10451027;28;20052;-54
2021/07/30 07:30:38;;;;;;;34.75;7.22;;;21.70;66.90;;;;;;10451550;28;20044;-53
2021/07/30 07:35:38;;;;;;;27.77;8.55;;;21.70;66.90;;;;;;10451098;28;20043;-50
2021/07/30 07:40:39;;;;;;;18.02;6.70;;;21.70;66.90;;;;;;10433082;28;20052;-48
2021/07/30 07:45:40;;;;;;;20.95;6.43;;;21.70;67.30;;;;;;10450721;28;20077;-51
2021/07/30 07:50:41;;;;;;;17.08;6.82;;;21.80;68.00;;;;;;10455193;28;20033;-48
2021/07/30 07:55:42;;;;;;;18.75;6.78;;;21.80;67.80;;;;;;10439358;28;20055;-51
2021/07/30 08:00:43;;;;;;;25.42;7.03;;;21.80;68.70;;;;;;10438932;28;20021;-52
2021/07/30 08:05:43;;;;;;;18.05;6.82;;;21.80;67.10;;;;;;10437350;28;20116;-48
2021/07/30 08:10:44;;;;;;;21.90;6.05;;;21.80;67.20;;;;;;10455003;28;20064;-49
2021/07/30 08:15:45;;;;;;;21.00;6.35;;;21.80;67.20;;;;;;10456340;28;20106;-48
2021/07/30 08:20:46;;;;;;;19.30;6.95;;;21.80;67.20;;;;;;10452092;28;20106;-47
2021/07/30 08:25:46;;;;;;;24.05;7.00;;;21.80;67.90;;;;;;10456216;28;20075;-47
2021/07/30 08:30:47;;;;;;;23.73;5.78;;;21.80;67.70;;;;;;10451345;28;20431;-45
2021/07/30 08:35:48;;;;;;;21.42;7.18;;;21.80;68.10;;;;;;10455542;28;20063;-48
2021/07/30 08:40:49;;;;;;;23.55;7.43;;;21.90;68.70;;;;;;10455338;28;20124;-49
2021/07/30 08:45:51;;;;;;;13.70;6.45;;;21.90;68.40;;;;;;10455055;28;20048;-48
2021/07/30 08:50:51;;;;;;;16.48;6.55;;;21.90;68.20;;;;;;10455553;28;20029;-48
2021/07/30 08:55:53;;;;;;;22.98;7.07;;;21.90;68.70;;;;;;10455111;28;20040;-45
2021/07/30 09:00:54;;;;;;;16.50;7.10;;;21.90;66.90;;;;;;10442539;28;20068;-47
2021/07/30 09:05:54;;;;;;;9.85;5.90;;;21.90;66.10;;;;;;10468953;28;20120;-46
2021/07/30 09:10:55;;;;;;;13.70;5.30;;;21.90;66.00;;;;;;10467977;28;20115;-48
2021/07/30 09:16:10;;;;;;;14.27;5.47;;;21.80;65.70;;;;;;10467990;28;20060;-49
2021/07/30 09:21:19;;;;;;;20.15;5.30;;;21.80;65.70;;;;;;10469837;28;20032;-49
2021/07/30 09:26:47;;;;;;;12.25;5.40;;;21.80;66.00;;;;;;10453891;28;20389;-47
2021/07/30 09:31:54;;;;;;;12.40;4.50;;;21.80;66.00;;;;;;10465304;28;20106;-49
2021/07/30 09:37:08;;;;;;;9.07;5.28;;;21.80;65.90;;;;;;10467294;28;20036;-47
2021/07/30 09:42:11;;;;;;;8.98;4.90;;;21.80;65.90;;;;;;10449440;28;20435;-46
2021/07/30 09:47:19;;;;;;;8.48;4.57;;;21.80;66.00;;;;;;10468084;28;20049;-46
2021/07/30 09:52:26;;;;;;;8.07;4.80;;;21.80;65.80;;;;;;10467419;28;20031;-47
2021/07/30 09:57:32;;;;;;;11.93;4.95;;;21.80;66.00;;;;;;10467997;28;20033;-46
2021/07/30 10:02:37;;;;;;;9.40;4.97;;;21.80;65.80;;;;;;10466368;28;20496;-46
2021/07/30 10:07:41;;;;;;;8.98;5.10;;;21.80;65.70;;;;;;10467046;28;20397;-46
2021/07/30 10:12:49;;;;;;;8.57;4.78;;;21.80;65.70;;;;;;10459868;28;20086;-49
2021/07/30 10:17:58;;;;;;;6.03;4.57;;;21.80;65.50;;;;;;10441940;28;20462;-47
2021/07/30 10:23:12;;;;;;;7.10;4.22;;;21.80;65.40;;;;;;10467126;28;20056;-49
2021/07/30 10:28:32;;;;;;;8.10;4.63;;;21.80;65.80;;;;;;10460614;28;20065;-48
2021/07/30 10:33:40;;;;;;;6.53;3.97;;;21.80;65.70;;;;;;10459698;28;20603;-49
2021/07/30 10:38:41;;;;;;;9.48;4.43;;;21.80;65.60;;;;;;10459909;28;20025;-49
2021/07/30 10:44:00;;;;;;;10.25;5.20;;;21.80;65.50;;;;;;10459854;28;20120;-46
2021/07/30 10:49:01;;;;;;;11.55;4.95;;;21.90;66.50;;;;;;10459575;28;20037;-47
2021/07/30 10:54:03;;;;;;;12.20;5.43;;;21.90;67.10;;;;;;10459616;28;20653;-48
2021/07/30 10:59:05;;;;;;;11.80;5.47;;;22.00;67.60;;;;;;10458450;28;20044;-53
2021/07/30 11:04:06;;;;;;;9.40;4.85;;;22.00;67.90;;;;;;10459387;28;20024;-50
2021/07/30 11:09:06;;;;;;;14.25;5.32;;;22.10;67.90;;;;;;10459082;28;20035;-48
2021/07/30 11:14:13;;;;;;;8.90;4.93;;;22.10;68.00;;;;;;10458819;28;20033;-53
2021/07/30 11:19:16;;;;;;;11.55;4.55;;;22.10;67.90;;;;;;10458750;28;20044;-47
2021/07/30 11:24:17;;;;;;;11.40;4.93;;;22.20;68.00;;;;;;10464109;28;20032;-56
2021/07/30 11:29:21;;;;;;;10.00;5.88;;;22.20;68.30;;;;;;10454628;28;20037;-55
2021/07/30 11:34:35;;;;;;;11.13;5.57;;;22.20;66.70;;;;;;10457035;28;20027;-53
2021/07/30 11:39:40;;;;;;;11.57;5.32;;;22.20;67.80;;;;;;10456462;28;20547;-55
2021/07/30 11:45:04;;;;;;;9.85;5.30;;;22.20;66.80;;;;;;10439261;28;20057;-52
2021/07/30 11:50:14;;;;;;;12.80;5.10;;;22.20;66.80;;;;;;10455109;28;20163;-54
2021/07/30 11:55:19;;;;;;;13.45;5.80;;;22.20;67.00;;;;;;10456310;28;20039;-51
2021/07/30 12:00:24;;;;;;;18.08;5.90;;;22.20;68.90;;;;;;10453667;28;20032;-54
2021/07/30 12:05:38;;;;;;;10.52;5.63;;;22.20;68.80;;;;;;10461012;28;20029;-56
2021/07/30 12:10:40;;;;;;;9.23;4.20;;;22.20;68.40;;;;;;10426886;28;20053;-55
2021/07/30 12:15:41;;;;;;;10.85;5.15;;;22.20;67.10;;;;;;10456152;28;20028;-55
2021/07/30 12:20:43;;;;;;;13.60;5.72;;;22.10;66.80;;;;;;10421472;28;20113;-55
2021/07/30 12:25:46;;;;;;;10.25;4.20;;;22.20;67.80;;;;;;10454666;28;20033;-55
2021/07/30 12:30:50;;;;;;;9.02;4.55;;;22.10;66.60;;;;;;10455839;28;20032;-55
2021/07/30 12:36:05;;;;;;;12.70;5.20;;;22.10;67.60;;;;;;10455167;28;20078;-56
2021/07/30 12:41:15;;;;;;;10.70;5.22;;;22.20;68.10;;;;;;10453671;28;20039;-55
2021/07/30 12:46:50;;;;;;;7.90;3.83;;;22.20;67.80;;;;;;10434918;28;20408;-54
2021/07/30 12:51:51;;;;;;;11.27;4.70;;;22.10;67.10;;;;;;10447241;28;20115;-55
2021/07/30 12:57:07;;;;;;;10.18;4.68;;;22.10;67.20;;;;;;10431653;28;20048;-56
2021/07/30 13:02:07;;;;;;;11.48;4.75;;;22.20;68.80;;;;;;10452573;28;20103;-52
2021/07/30 13:07:09;;;;;;;13.40;5.35;;;22.20;68.50;;;;;;10453582;28;20029;-54
2021/07/30 13:12:10;;;;;;;10.02;4.78;;;22.10;68.50;;;;;;10433208;28;20029;-54
2021/07/30 13:17:11;;;;;;;10.60;5.15;;;22.20;68.80;;;;;;10452491;28;20048;-53
2021/07/30 13:22:12;;;;;;;10.38;4.22;;;22.20;67.70;;;;;;10452954;28;20112;-54
2021/07/30 13:27:13;;;;;;;10.07;5.60;;;22.20;68.60;;;;;;10452597;28;20052;-54
2021/07/30 13:32:13;;;;;;;14.80;5.80;;;22.20;69.70;;;;;;10450360;28;20050;-53
2021/07/30 13:37:14;;;;;;;7.65;4.32;;;22.20;68.10;;;;;;10452488;28;20108;-54
2021/07/30 13:42:15;;;;;;;8.68;5.13;;;22.20;67.70;;;;;;10435075;28;20456;-53
2021/07/30 13:47:15;;;;;;;12.90;5.10;;;22.20;68.10;;;;;;10456180;28;20069;-54
2021/07/30 13:52:16;;;;;;;12.52;5.53;;;22.20;68.20;;;;;;10459210;28;20063;-47
2021/07/30 13:57:17;;;;;;;16.50;4.70;;;22.30;69.60;;;;;;10460500;28;20047;-55
2021/07/30 14:02:20;;;;;;;13.77;4.60;;;22.30;68.50;;;;;;10459992;28;20481;-55
2021/07/30 14:07:20;;;;;;;11.60;5.18;;;22.30;68.80;;;;;;10441144;28;20025;-54
2021/07/30 14:12:21;;;;;;;11.45;4.70;;;22.30;68.20;;;;;;10440430;28;20029;-53
2021/07/30 14:17:22;;;;;;;21.05;5.82;;;22.30;68.70;;;;;;10459964;28;20029;-55
2021/07/30 14:22:23;;;;;;;17.55;4.68;;;22.20;68.80;;;;;;10442316;28;20119;-55
2021/07/30 14:27:23;;;;;;;17.10;6.43;;;22.30;69.20;;;;;;10459206;28;20064;-53
2021/07/30 14:32:24;;;;;;;16.40;5.13;;;22.30;70.20;;;;;;10459567;28;20409;-56
2021/07/30 14:37:25;;;;;;;15.85;5.45;;;22.30;69.80;;;;;;10458974;28;20053;-55
2021/07/30 14:42:26;;;;;;;10.63;5.07;;;22.30;69.90;;;;;;10441812;28;20040;-56
2021/07/30 14:47:27;;;;;;;13.07;5.93;;;22.30;70.10;;;;;;10449515;28;20158;-55
2021/07/30 14:52:28;;;;;;;16.95;6.07;;;22.30;71.20;;;;;;10459238;28;20083;-56
2021/07/30 14:57:29;;;;;;;15.70;5.47;;;22.40;71.00;;;;;;10455116;28;20065;-55
2021/07/30 15:02:30;;;;;;;16.17;6.15;;;22.40;71.60;;;;;;10458211;28;20155;-53
2021/07/30 15:07:30;;;;;;;16.73;6.55;;;22.40;71.20;;;;;;10469088;28;20182;-56
2021/07/30 15:12:31;;;;;;;13.60;5.40;;;22.40;71.10;;;;;;10458751;28;20053;-55
2021/07/30 15:17:32;;;;;;;21.85;5.50;;;22.30;71.10;;;;;;10443480;28;20543;-54
2021/07/30 15:22:32;;;;;;;13.10;6.05;;;22.40;71.30;;;;;;10450601;28;20037;-54
2021/07/30 15:27:33;;;;;;;16.52;5.95;;;22.40;71.60;;;;;;10450522;28;20107;-54
2021/07/30 15:32:34;;;;;;;16.38;6.57;;;22.40;71.60;;;;;;10450279;28;20485;-51
2021/07/30 15:37:35;;;;;;;11.40;6.50;;;22.40;71.70;;;;;;10444713;28;20144;-54
2021/07/30 15:42:35;;;;;;;19.20;5.82;;;22.40;71.70;;;;;;10456257;28;20035;-56
2021/07/30 15:47:37;;;;;;;16.15;6.57;;;22.40;71.90;;;;;;10457044;28;20116;-48
2021/07/30 15:52:37;;;;;;;11.35;6.90;;;22.50;71.90;;;;;;10434739;28;20048;-54
2021/07/30 15:57:38;;;;;;;12.25;7.65;;;22.50;71.80;;;;;;10435634;28;20601;-54
2021/07/30 16:02:39;;;;;;;29.13;26.80;;;22.50;71.20;;;;;;10449526;28;20059;-51
2021/07/30 16:07:39;;;;;;;13.60;11.25;;;22.60;70.80;;;;;;10455050;28;20408;-55
2021/07/30 16:12:40;;;;;;;18.92;17.25;;;22.60;71.10;;;;;;10437677;28;20100;-53
2021/07/30 16:17:41;;;;;;;129.70;116.65;;;22.60;71.80;;;;;;10438437;28;20116;-55
2021/07/30 16:22:44;;;;;;;73.47;61.72;;;22.60;72.40;;;;;;10462149;28;20433;-55
2021/07/30 16:27:47;;;;;;;31.73;27.33;;;22.60;72.20;;;;;;10455799;28;20033;-54
2021/07/30 16:32:48;;;;;;;20.90;15.85;;;22.60;71.10;;;;;;10455733;28;20112;-53
2021/07/30 16:37:48;;;;;;;17.75;14.38;;;22.50;71.70;;;;;;10455068;28;20540;-54
2021/07/30 16:42:49;;;;;;;14.02;12.48;;;22.60;71.30;;;;;;10439006;28;20057;-54
2021/07/30 16:47:50;;;;;;;13.63;11.38;;;22.50;70.90;;;;;;10455092;28;20489;-55
2021/07/30 16:52:50;;;;;;;15.10;10.10;;;22.50;70.70;;;;;;10455317;28;20373;-55
2021/07/30 16:57:51;;;;;;;9.95;8.05;;;22.50;70.30;;;;;;10455650;28;20437;-53
2021/07/30 17:02:53;;;;;;;10.63;8.00;;;22.50;70.10;;;;;;10455351;28;20071;-54
2021/07/30 17:07:54;;;;;;;9.48;7.25;;;22.50;69.70;;;;;;10454949;28;20041;-54
2021/07/30 17:13:01;;;;;;;8.82;7.03;;;22.40;69.60;;;;;;10455226;28;20033;-52
2021/07/30 17:18:01;;;;;;;10.70;6.35;;;22.40;69.30;;;;;;10454814;28;20037;-55
2021/07/30 17:23:02;;;;;;;5.45;4.78;;;22.40;69.10;;;;;;10466333;28;20029;-52
2021/07/30 17:28:03;;;;;;;7.50;4.63;;;22.40;68.70;;;;;;10461859;28;20440;-54
2021/07/30 17:33:04;;;;;;;6.10;4.78;;;22.40;68.90;;;;;;10463271;28;20029;-55
2021/07/30 17:38:05;;;;;;;8.00;3.92;;;22.40;68.60;;;;;;10446019;28;20033;-54
2021/07/30 17:43:09;;;;;;;14.13;3.95;;;22.40;68.50;;;;;;10460754;28;20139;-54
2021/07/30 17:48:10;;;;;;;7.90;3.78;;;22.40;68.50;;;;;;10461089;28;20120;-53
2021/07/30 17:53:10;;;;;;;7.10;3.28;;;22.40;68.30;;;;;;10457320;28;20029;-54
2021/07/30 17:58:11;;;;;;;8.57;3.75;;;22.30;68.10;;;;;;10461306;28;20036;-53
2021/07/30 18:03:12;;;;;;;6.45;3.70;;;22.40;68.00;;;;;;10459408;28;20032;-52
2021/07/30 18:08:13;;;;;;;5.88;3.20;;;22.30;68.00;;;;;;10461245;28;20116;-52
2021/07/30 18:13:13;;;;;;;3.38;2.60;;;22.30;68.10;;;;;;10461592;28;20063;-56
2021/07/30 18:18:14;;;;;;;9.00;3.40;;;22.30;67.90;;;;;;10460786;28;20393;-53
2021/07/30 18:23:14;;;;;;;7.50;3.28;;;22.30;67.50;;;;;;10464044;28;20068;-53
2021/07/30 18:28:15;;;;;;;6.10;3.83;;;22.30;67.30;;;;;;10457099;28;20033;-52
2021/07/30 18:33:16;;;;;;;3.85;2.80;;;22.30;67.30;;;;;;10460277;28;20049;-53
2021/07/30 18:38:17;;;;;;;4.85;2.28;;;22.30;67.40;;;;;;10460097;28;20120;-54
2021/07/30 18:43:17;;;;;;;6.40;2.92;;;22.30;67.30;;;;;;10460014;28;20044;-53
2021/07/30 18:48:18;;;;;;;4.00;2.58;;;22.30;67.20;;;;;;10459312;28;20037;-53
2021/07/30 18:53:19;;;;;;;5.68;2.70;;;22.20;66.90;;;;;;10459022;28;20048;-53
2021/07/30 18:58:19;;;;;;;5.15;2.97;;;22.20;66.50;;;;;;10459950;28;20052;-53
2021/07/30 19:03:20;;;;;;;7.88;3.08;;;22.20;66.40;;;;;;10459269;28;20063;-54
2021/07/30 19:08:21;;;;;;;6.47;2.38;;;22.20;66.20;;;;;;10455466;28;20375;-54
2021/07/30 19:13:21;;;;;;;7.63;2.33;;;22.20;66.40;;;;;;10457213;28;20381;-54
2021/07/30 19:18:22;;;;;;;5.97;2.38;;;22.20;66.80;;;;;;10456575;28;20116;-54
2021/07/30 19:23:23;;;;;;;5.35;1.92;;;22.20;66.80;;;;;;10454595;28;20104;-55
2021/07/30 19:28:24;;;;;;;3.63;2.20;;;22.20;66.80;;;;;;10449819;28;20116;-55
2021/07/30 19:33:24;;;;;;;5.90;2.28;;;22.20;66.80;;;;;;10425529;28;20052;-56
2021/07/30 19:38:25;;;;;;;5.93;2.95;;;22.20;66.70;;;;;;10443511;28;20449;-54
2021/07/30 19:43:26;;;;;;;6.07;2.25;;;22.20;67.00;;;;;;10455911;28;20123;-55
2021/07/30 19:48:27;;;;;;;7.43;2.45;;;22.20;67.00;;;;;;10454576;28;20102;-54
2021/07/30 19:53:28;;;;;;;5.78;2.47;;;22.20;67.00;;;;;;10456377;28;20025;-50
2021/07/30 19:58:30;;;;;;;4.10;2.13;;;22.20;66.90;;;;;;10449936;28;20420;-54
2021/07/30 20:03:32;;;;;;;4.75;2.80;;;22.20;67.00;;;;;;10437004;28;20485;-54
2021/07/30 20:08:33;;;;;;;4.20;2.63;;;22.20;67.00;;;;;;10455912;28;20068;-55
2021/07/30 20:13:33;;;;;;;3.47;2.10;;;22.20;66.90;;;;;;10455376;28;20024;-53
2021/07/30 20:18:34;;;;;;;5.63;2.30;;;22.20;67.10;;;;;;10454324;28;20543;-53
2021/07/30 20:23:36;;;;;;;3.30;2.17;;;22.20;67.00;;;;;;10441263;28;20124;-53
2021/07/30 20:28:37;;;;;;;3.70;1.90;;;22.20;67.10;;;;;;10455600;28;20531;-54
2021/07/30 20:33:37;;;;;;;3.30;2.20;;;22.10;67.00;;;;;;10455926;28;20079;-54
2021/07/30 20:38:40;;;;;;;4.55;2.00;;;22.10;67.00;;;;;;10455857;28;20158;-53
2021/07/30 20:43:41;;;;;;;3.05;1.60;;;22.10;67.10;;;;;;10447217;28;20049;-53
2021/07/30 20:48:42;;;;;;;3.13;1.65;;;22.10;66.90;;;;;;10455635;28;20111;-53
2021/07/30 20:53:43;;;;;;;4.10;2.00;;;22.10;66.90;;;;;;10455744;28;20025;-52
2021/07/30 20:58:49;;;;;;;4.43;2.00;;;22.10;66.80;;;;;;10455207;28;20072;-52
2021/07/30 21:03:50;;;;;;;2.67;1.70;;;22.10;66.60;;;;;;10455783;28;20056;-54
2021/07/30 21:08:54;;;;;;;3.83;2.22;;;22.10;66.70;;;;;;10454673;28;20146;-54
2021/07/30 21:13:55;;;;;;;3.58;1.80;;;22.10;66.50;;;;;;10455438;28;20033;-53
2021/07/30 21:18:56;;;;;;;2.67;1.80;;;22.10;66.40;;;;;;10437265;28;20029;-54
2021/07/30 21:23:57;;;;;;;3.58;1.90;;;22.10;66.30;;;;;;10460734;28;20478;-54
2021/07/30 21:28:58;;;;;;;2.42;1.80;;;22.10;66.40;;;;;;10454562;28;20063;-54
2021/07/30 21:33:58;;;;;;;4.10;2.22;;;22.10;66.40;;;;;;10454882;28;20473;-53
2021/07/30 21:39:00;;;;;;;4.68;1.80;;;22.00;66.10;;;;;;10454704;28;20063;-52
2021/07/30 21:44:01;;;;;;;3.67;2.05;;;22.00;66.20;;;;;;10437088;28;20041;-54
2021/07/30 21:49:01;;;;;;;3.00;1.88;;;22.00;66.10;;;;;;10454229;28;20041;-54
2021/07/30 21:54:02;;;;;;;3.08;2.10;;;22.00;66.00;;;;;;10454409;28;20068;-54
2021/07/30 21:59:03;;;;;;;3.38;1.67;;;22.00;65.90;;;;;;10435798;28;20060;-54
2021/07/30 22:04:03;;;;;;;4.22;1.67;;;22.00;65.70;;;;;;10453689;28;20509;-53
2021/07/30 22:09:04;;;;;;;4.18;1.90;;;22.00;65.70;;;;;;10458412;28;20037;-53
2021/07/30 22:14:05;;;;;;;4.15;1.42;;;22.00;65.70;;;;;;10461628;28;20049;-53
2021/07/30 22:19:05;;;;;;;3.10;1.50;;;22.00;65.60;;;;;;10461399;28;20400;-54
2021/07/30 22:24:06;;;;;;;3.08;1.77;;;22.00;65.70;;;;;;10468529;28;20032;-53
2021/07/30 22:29:07;;;;;;;4.22;1.77;;;22.00;65.60;;;;;;10460939;28;20248;-53
2021/07/30 22:34:07;;;;;;;3.58;1.60;;;22.00;65.60;;;;;;10460694;28;20107;-53
2021/07/30 22:39:08;;;;;;;4.00;1.58;;;22.00;65.50;;;;;;10460469;28;20067;-53
2021/07/30 22:44:09;;;;;;;4.38;1.63;;;22.00;65.30;;;;;;10460528;28;20146;-54
2021/07/30 22:49:09;;;;;;;3.70;1.80;;;22.00;65.30;;;;;;10459876;28;20426;-54
2021/07/30 22:54:10;;;;;;;2.38;1.63;;;21.90;65.40;;;;;;10443299;28;20029;-54
2021/07/30 22:59:11;;;;;;;3.03;1.80;;;22.00;65.60;;;;;;10459295;28;20071;-54
2021/07/30 23:04:11;;;;;;;4.53;1.90;;;21.90;65.30;;;;;;10459649;28;20541;-53
2021/07/30 23:09:12;;;;;;;2.83;1.50;;;21.90;65.40;;;;;;10459703;28;20108;-54
2021/07/30 23:14:13;;;;;;;3.88;1.77;;;21.90;65.20;;;;;;10459429;28;20056;-53
2021/07/30 23:19:13;;;;;;;2.85;1.80;;;21.90;65.50;;;;;;10458548;28;20056;-53
2021/07/30 23:24:14;;;;;;;3.17;2.08;;;21.90;65.20;;;;;;10465450;28;20049;-54
2021/07/30 23:29:15;;;;;;;3.22;1.80;;;21.90;65.20;;;;;;10440567;28;20153;-53
2021/07/30 23:34:16;;;;;;;2.92;1.73;;;21.90;65.20;;;;;;10458853;28;20406;-53
2021/07/30 23:39:16;;;;;;;5.65;2.20;;;21.90;65.20;;;;;;10458261;28;20121;-54
2021/07/30 23:44:17;;;;;;;4.78;1.90;;;21.90;65.20;;;;;;10458117;28;20437;-53
2021/07/30 23:49:18;;;;;;;4.72;1.83;;;21.90;65.20;;;;;;10457721;28;20035;-54
2021/07/30 23:54:19;;;;;;;4.60;2.25;;;21.90;65.80;;;;;;10457713;28;20541;-54
2021/07/30 23:59:20;;;;;;;5.93;2.20;;;21.90;65.20;;;;;;10456745;28;20033;-53
